sensor_id;sensor_type;location;lat;lon;timestamp;P1;durP1;ratioP1;P2;durP2;ratioP2
70457;SDS011;57919;56.194;95.716;2023-11-19T00:07:31;53.70;;;16.10;;
70457;SDS011;57919;56.194;95.716;2023-11-19T00:17:32;89.93;;;23.23;;
70457;SDS011;57919;56.194;95.716;2023-11-19T00:27:35;27.07;;;9.03;;
70457;SDS011;57919;56.194;95.716;2023-11-19T00:37:39;72.57;;;22.60;;
70457;SDS011;57919;56.194;95.716;2023-11-19T00:47:41;49.95;;;23.95;;
70457;SDS011;57919;56.194;95.716;2023-11-19T00:57:44;85.17;;;35.13;;
70457;SDS011;57919;56.194;95.716;2023-11-19T01:07:46;30.63;;;11.63;;
70457;SDS011;57919;56.194;95.716;2023-11-19T01:17:48;32.40;;;13.10;;
70457;SDS011;57919;56.194;95.716;2023-11-19T01:27:50;9.35;;;3.95;;
70457;SDS011;57919;56.194;95.716;2023-11-19T01:37:52;39.03;;;14.57;;
70457;SDS011;57919;56.194;95.716;2023-11-19T01:47:54;20.77;;;8.63;;
70457;SDS011;57919;56.194;95.716;2023-11-19T01:57:59;32.92;;;12.15;;
70457;SDS011;57919;56.194;95.716;2023-11-19T02:08:02;26.53;;;9.07;;
70457;SDS011;57919;56.194;95.716;2023-11-19T02:18:17;198.30;;;68.70;;
70457;SDS011;57919;56.194;95.716;2023-11-19T02:28:20;627.85;;;240.55;;
70457;SDS011;57919;56.194;95.716;2023-11-19T02:38:23;691.63;;;252.60;;
70457;SDS011;57919;56.194;95.716;2023-11-19T02:48:25;254.27;;;74.40;;
70457;SDS011;57919;56.194;95.716;2023-11-19T02:58:27;303.92;;;103.00;;
70457;SDS011;57919;56.194;95.716;2023-11-19T03:08:30;69.67;;;30.80;;
70457;SDS011;57919;56.194;95.716;2023-11-19T03:18:32;214.80;;;76.97;;
70457;SDS011;57919;56.194;95.716;2023-11-19T03:28:34;64.68;;;27.67;;
70457;SDS011;57919;56.194;95.716;2023-11-19T03:38:36;58.60;;;24.47;;
70457;SDS011;57919;56.194;95.716;2023-11-19T03:48:38;79.17;;;33.70;;
70457;SDS011;57919;56.194;95.716;2023-11-19T03:58:45;77.88;;;36.05;;
70457;SDS011;57919;56.194;95.716;2023-11-19T04:08:47;101.43;;;40.27;;
70457;SDS011;57919;56.194;95.716;2023-11-19T04:18:49;124.60;;;49.70;;
70457;SDS011;57919;56.194;95.716;2023-11-19T04:28:52;91.97;;;36.72;;
70457;SDS011;57919;56.194;95.716;2023-11-19T04:38:55;24.70;;;12.57;;
70457;SDS011;57919;56.194;95.716;2023-11-19T04:48:57;33.60;;;13.40;;
70457;SDS011;57919;56.194;95.716;2023-11-19T04:58:59;48.85;;;21.85;;
70457;SDS011;57919;56.194;95.716;2023-11-19T05:09:01;14.07;;;6.50;;
70457;SDS011;57919;56.194;95.716;2023-11-19T05:19:06;16.07;;;8.67;;
70457;SDS011;57919;56.194;95.716;2023-11-19T05:29:08;44.65;;;26.60;;
70457;SDS011;57919;56.194;95.716;2023-11-19T05:39:10;9.03;;;2.97;;
70457;SDS011;57919;56.194;95.716;2023-11-19T05:49:12;98.60;;;46.90;;
70457;SDS011;57919;56.194;95.716;2023-11-19T05:59:14;46.13;;;27.27;;
70457;SDS011;57919;56.194;95.716;2023-11-19T06:09:18;17.23;;;4.37;;
70457;SDS011;57919;56.194;95.716;2023-11-19T06:19:20;7.15;;;2.83;;
70457;SDS011;57919;56.194;95.716;2023-11-19T06:29:22;8.30;;;1.87;;
70457;SDS011;57919;56.194;95.716;2023-11-19T06:39:24;3.17;;;0.90;;
70457;SDS011;57919;56.194;95.716;2023-11-19T06:49:27;5.47;;;1.17;;
70457;SDS011;57919;56.194;95.716;2023-11-19T06:59:29;8.43;;;0.97;;
70457;SDS011;57919;56.194;95.716;2023-11-19T07:09:31;9.07;;;1.42;;
70457;SDS011;57919;56.194;95.716;2023-11-19T07:19:35;2.13;;;0.43;;
70457;SDS011;57919;56.194;95.716;2023-11-19T07:29:38;12.77;;;4.17;;
70457;SDS011;57919;56.194;95.716;2023-11-19T07:39:41;9.13;;;3.35;;
70457;SDS011;57919;56.194;95.716;2023-11-19T07:49:43;5.57;;;1.23;;
70457;SDS011;57919;56.194;95.716;2023-11-19T07:59:46;1.90;;;0.40;;
70457;SDS011;57919;56.194;95.716;2023-11-19T08:09:48;4.00;;;0.35;;
70457;SDS011;57919;56.194;95.716;2023-11-19T08:19:50;8.50;;;0.70;;
70457;SDS011;57919;56.194;95.716;2023-11-19T08:29:56;3.57;;;0.60;;
70457;SDS011;57919;56.194;95.716;2023-11-19T08:39:58;1.77;;;0.28;;
70457;SDS011;57919;56.194;95.716;2023-11-19T08:50:00;5.40;;;0.43;;
70457;SDS011;57919;56.194;95.716;2023-11-19T09:00:03;3.43;;;0.67;;
70457;SDS011;57919;56.194;95.716;2023-11-19T09:10:09;10.70;;;0.50;;
70457;SDS011;57919;56.194;95.716;2023-11-19T09:20:12;1.53;;;0.27;;
70457;SDS011;57919;56.194;95.716;2023-11-19T09:30:18;4.60;;;0.90;;
70457;SDS011;57919;56.194;95.716;2023-11-19T09:40:20;7.77;;;2.17;;
70457;SDS011;57919;56.194;95.716;2023-11-19T09:50:22;23.60;;;4.83;;
70457;SDS011;57919;56.194;95.716;2023-11-19T10:00:24;11.43;;;4.18;;
70457;SDS011;57919;56.194;95.716;2023-11-19T10:10:26;12.10;;;1.80;;
70457;SDS011;57919;56.194;95.716;2023-11-19T10:20:28;19.90;;;2.63;;
70457;SDS011;57919;56.194;95.716;2023-11-19T10:30:30;4.68;;;0.70;;
70457;SDS011;57919;56.194;95.716;2023-11-19T10:40:39;7.63;;;1.63;;
70457;SDS011;57919;56.194;95.716;2023-11-19T10:50:43;6.30;;;0.73;;
70457;SDS011;57919;56.194;95.716;2023-11-19T11:00:54;2.17;;;0.40;;
70457;SDS011;57919;56.194;95.716;2023-11-19T11:10:57;3.07;;;0.47;;
70457;SDS011;57919;56.194;95.716;2023-11-19T11:21:02;8.40;;;1.03;;
70457;SDS011;57919;56.194;95.716;2023-11-19T11:41:21;1.33;;;0.20;;
70457;SDS011;57919;56.194;95.716;2023-11-19T11:52:10;2.30;;;0.20;;
70457;SDS011;57919;56.194;95.716;2023-11-19T12:01:57;0.40;;;0.10;;
70457;SDS011;57919;56.194;95.716;2023-11-19T12:12:21;2.10;;;0.30;;
70457;SDS011;57919;56.194;95.716;2023-11-19T12:22:28;2.30;;;0.30;;
70457;SDS011;57919;56.194;95.716;2023-11-19T12:32:42;2.63;;;0.80;;
70457;SDS011;57919;56.194;95.716;2023-11-19T12:42:46;2.58;;;0.60;;
70457;SDS011;57919;56.194;95.716;2023-11-19T12:52:57;4.87;;;1.00;;
70457;SDS011;57919;56.194;95.716;2023-11-19T13:03:00;8.27;;;2.20;;
70457;SDS011;57919;56.194;95.716;2023-11-19T13:13:06;9.20;;;2.17;;
70457;SDS011;57919;56.194;95.716;2023-11-19T13:23:10;4.90;;;1.63;;
70457;SDS011;57919;56.194;95.716;2023-11-19T13:33:13;4.17;;;0.30;;
70457;SDS011;57919;56.194;95.716;2023-11-19T13:43:15;3.25;;;0.85;;
70457;SDS011;57919;56.194;95.716;2023-11-19T13:53:17;3.20;;;1.07;;
70457;SDS011;57919;56.194;95.716;2023-11-19T14:03:19;3.17;;;0.77;;
70457;SDS011;57919;56.194;95.716;2023-11-19T14:13:21;5.57;;;1.17;;
70457;SDS011;57919;56.194;95.716;2023-11-19T14:23:23;2.67;;;0.50;;
70457;SDS011;57919;56.194;95.716;2023-11-19T14:33:27;1.43;;;0.30;;
70457;SDS011;57919;56.194;95.716;2023-11-19T14:43:29;11.80;;;0.93;;
70457;SDS011;57919;56.194;95.716;2023-11-19T14:53:31;1.90;;;0.47;;
70457;SDS011;57919;56.194;95.716;2023-11-19T15:03:33;1.50;;;0.23;;
70457;SDS011;57919;56.194;95.716;2023-11-19T15:13:35;2.22;;;0.30;;
70457;SDS011;57919;56.194;95.716;2023-11-19T15:23:43;4.70;;;0.73;;
70457;SDS011;57919;56.194;95.716;2023-11-19T15:33:45;2.53;;;0.83;;
70457;SDS011;57919;56.194;95.716;2023-11-19T15:43:48;4.57;;;1.10;;
70457;SDS011;57919;56.194;95.716;2023-11-19T15:53:50;3.15;;;0.57;;
70457;SDS011;57919;56.194;95.716;2023-11-19T16:03:52;6.93;;;1.40;;
70457;SDS011;57919;56.194;95.716;2023-11-19T16:13:53;3.93;;;0.60;;
70457;SDS011;57919;56.194;95.716;2023-11-19T16:23:55;2.97;;;0.40;;
70457;SDS011;57919;56.194;95.716;2023-11-19T16:33:58;1.70;;;0.30;;
70457;SDS011;57919;56.194;95.716;2023-11-19T16:44:01;2.00;;;0.40;;
70457;SDS011;57919;56.194;95.716;2023-11-19T16:54:04;1.50;;;0.30;;
70457;SDS011;57919;56.194;95.716;2023-11-19T17:04:06;4.67;;;0.60;;
70457;SDS011;57919;56.194;95.716;2023-11-19T17:14:09;3.33;;;0.80;;
70457;SDS011;57919;56.194;95.716;2023-11-19T17:24:11;1.97;;;0.40;;
70457;SDS011;57919;56.194;95.716;2023-11-19T17:34:14;2.47;;;0.70;;
70457;SDS011;57919;56.194;95.716;2023-11-19T17:44:16;1.10;;;0.30;;
70457;SDS011;57919;56.194;95.716;2023-11-19T17:54:19;0.60;;;0.10;;
70457;SDS011;57919;56.194;95.716;2023-11-19T18:04:24;4.45;;;0.82;;
70457;SDS011;57919;56.194;95.716;2023-11-19T18:14:27;1.43;;;0.20;;
70457;SDS011;57919;56.194;95.716;2023-11-19T18:24:29;3.40;;;0.47;;
70457;SDS011;57919;56.194;95.716;2023-11-19T18:34:32;2.38;;;0.63;;
70457;SDS011;57919;56.194;95.716;2023-11-19T18:44:34;5.13;;;0.33;;
70457;SDS011;57919;56.194;95.716;2023-11-19T18:54:36;1.80;;;0.30;;
70457;SDS011;57919;56.194;95.716;2023-11-19T19:04:38;1.33;;;0.30;;
70457;SDS011;57919;56.194;95.716;2023-11-19T19:14:40;1.92;;;0.50;;
70457;SDS011;57919;56.194;95.716;2023-11-19T19:24:42;1.00;;;0.37;;
70457;SDS011;57919;56.194;95.716;2023-11-19T19:34:44;1.07;;;0.40;;
70457;SDS011;57919;56.194;95.716;2023-11-19T19:44:46;1.48;;;0.40;;
70457;SDS011;57919;56.194;95.716;2023-11-19T19:54:48;1.90;;;0.43;;
70457;SDS011;57919;56.194;95.716;2023-11-19T20:04:50;1.30;;;0.23;;
70457;SDS011;57919;56.194;95.716;2023-11-19T20:14:52;1.48;;;0.30;;
70457;SDS011;57919;56.194;95.716;2023-11-19T20:24:54;1.87;;;0.27;;
70457;SDS011;57919;56.194;95.716;2023-11-19T20:34:56;0.70;;;0.20;;
70457;SDS011;57919;56.194;95.716;2023-11-19T20:45:01;19.77;;;5.30;;
70457;SDS011;57919;56.194;95.716;2023-11-19T20:55:05;6.22;;;1.38;;
70457;SDS011;57919;56.194;95.716;2023-11-19T21:05:08;11.60;;;2.70;;
70457;SDS011;57919;56.194;95.716;2023-11-19T21:15:10;1.10;;;0.50;;
70457;SDS011;57919;56.194;95.716;2023-11-19T21:25:12;4.47;;;0.90;;
70457;SDS011;57919;56.194;95.716;2023-11-19T21:35:15;8.23;;;1.97;;
70457;SDS011;57919;56.194;95.716;2023-11-19T21:45:16;21.47;;;3.33;;
70457;SDS011;57919;56.194;95.716;2023-11-19T21:55:19;8.82;;;1.45;;
70457;SDS011;57919;56.194;95.716;2023-11-19T22:05:21;8.63;;;2.30;;
70457;SDS011;57919;56.194;95.716;2023-11-19T22:15:23;4.53;;;1.03;;
70457;SDS011;57919;56.194;95.716;2023-11-19T22:25:25;15.27;;;5.90;;
70457;SDS011;57919;56.194;95.716;2023-11-19T22:35:28;8.18;;;2.67;;
70457;SDS011;57919;56.194;95.716;2023-11-19T22:45:30;6.50;;;2.10;;
70457;SDS011;57919;56.194;95.716;2023-11-19T22:55:32;8.70;;;2.50;;
70457;SDS011;57919;56.194;95.716;2023-11-19T23:05:35;14.48;;;5.20;;
70457;SDS011;57919;56.194;95.716;2023-11-19T23:15:37;11.30;;;3.20;;
70457;SDS011;57919;56.194;95.716;2023-11-19T23:25:39;4.67;;;2.07;;
70457;SDS011;57919;56.194;95.716;2023-11-19T23:35:41;11.60;;;3.10;;
70457;SDS011;57919;56.194;95.716;2023-11-19T23:45:43;2.33;;;0.85;;
70457;SDS011;57919;56.194;95.716;2023-11-19T23:55:45;5.33;;;1.87;;
